Time;durP1;ratioP1;P1;durP2;ratioP2;P2;SDS_P1;SDS_P2;PMS_P1;PMS_P2;Temp;Humidity;BMP_temperature;BMP_pressure;BME280_temperature;BME280_humidity;BME280_pressure;Samples;Min_cycle;Max_cycle;Signal;HPM_P1;HPM_P2
2021/04/15 00:00:57;;;;;;;;;;;;;;;18.76;62.48;101011.78;5010094;28;1944;-46
2021/04/15 00:03:28;;;;;;;;;;;;;;;18.76;62.60;101022.50;5012684;28;1723;-46
2021/04/15 00:05:57;;;;;;;;;;;;;;;18.75;62.56;101021.66;5011377;28;1648;-47
2021/04/15 00:08:26;;;;;;;;;;;;;;;18.71;62.42;101022.06;5010942;28;1593;-46
2021/04/15 00:10:53;;;;;;;;;;;;;;;18.69;62.64;101024.84;5010572;28;1684;-46
2021/04/15 00:13:23;;;;;;;;;;;;;;;18.71;62.44;101022.06;5012146;28;1748;-46
2021/04/15 00:15:52;;;;;;;;;;;;;;;18.75;62.58;101016.31;5004533;28;1756;-46
2021/04/15 00:18:19;;;;;;;;;;;;;;;18.74;62.39;101011.06;5012104;28;1961;-46
2021/04/15 00:20:46;;;;;;;;;;;;;;;18.74;62.50;101019.09;5012385;28;1838;-46
2021/04/15 00:23:13;;;;;;;;;;;;;;;18.74;62.43;101008.38;5011540;28;1889;-46
2021/04/15 00:25:39;;;;;;;;;;;;;;;18.74;62.50;101011.94;5007125;28;1842;-46
2021/04/15 00:28:08;;;;;;;;;;;;;;;18.72;62.85;101013.03;5013049;28;1660;-46
2021/04/15 00:30:34;;;;;;;;;;;;;;;18.71;62.76;100998.78;5013281;28;2594;-46
2021/04/15 00:33:05;;;;;;;;;;;;;;;18.72;62.60;101010.34;5004005;28;1547;-46
2021/04/15 00:35:33;;;;;;;;;;;;;;;18.71;62.38;100997.94;5015525;28;1340;-46
2021/04/15 00:37:59;;;;;;;;;;;;;;;18.68;62.88;101013.28;5013523;28;1902;-46
2021/04/15 00:40:25;;;;;;;;;;;;;;;18.74;62.89;101024.47;5012975;28;1781;-46
2021/04/15 00:42:51;;;;;;;;;;;;;;;18.69;62.92;101024.84;5014743;28;1621;-46
2021/04/15 00:45:19;;;;;;;;;;;;;;;18.68;62.96;101025.81;5015584;28;1684;-46
2021/04/15 00:47:49;;;;;;;;;;;;;;;18.64;62.70;101016.34;5017105;28;1154;-46
2021/04/15 00:50:20;;;;;;;;;;;;;;;18.63;63.02;101012.81;5015513;28;1844;-46
2021/04/15 00:52:49;;;;;;;;;;;;;;;18.65;62.76;101005.50;5011506;28;1657;-46
2021/04/15 00:55:17;;;;;;;;;;;;;;;18.64;62.80;101009.19;5012902;28;1836;-46
2021/04/15 00:57:48;;;;;;;;;;;;;;;18.66;63.01;101001.00;5015708;28;1906;-46
2021/04/15 01:00:17;;;;;;;;;;;;;;;18.64;62.94;100993.09;5014730;28;1656;-46
2021/04/15 01:02:44;;;;;;;;;;;;;;;18.63;62.95;101004.78;5016078;28;1083;-46
2021/04/15 01:05:15;;;;;;;;;;;;;;;18.63;63.04;101007.47;5013895;28;2079;-46
2021/04/15 01:07:42;;;;;;;;;;;;;;;18.62;63.07;100995.06;5007741;28;1752;-46
2021/04/15 01:10:08;;;;;;;;;;;;;;;18.65;62.89;101008.19;5014090;28;1712;-46
2021/04/15 01:12:43;;;;;;;;;;;;;;;18.66;62.97;101003.66;5007851;28;1601;-46
2021/04/15 01:18:10;;;;;;;;;;;;;;;18.61;62.99;100993.34;5013251;28;2263;-46
2021/04/15 01:21:09;;;;;;;;;;;;;;;18.61;62.94;100993.34;5014885;28;1652;-46
2021/04/15 01:23:37;;;;;;;;;;;;;;;18.60;62.86;100994.34;5014427;28;1462;-46
2021/04/15 01:26:22;;;;;;;;;;;;;;;18.60;63.25;100985.44;5013442;28;1783;-46
2021/04/15 01:29:04;;;;;;;;;;;;;;;18.57;63.13;100986.53;5012822;28;1827;-46
2021/04/15 01:31:40;;;;;;;;;;;;;;;18.57;63.01;100991.06;5009103;28;1579;-46
2021/04/15 01:34:12;;;;;;;;;;;;;;;18.59;63.24;100994.47;5010304;28;1521;-47
2021/04/15 01:36:42;;;;;;;;;;;;;;;18.58;62.82;100988.25;5005914;28;1668;-46
2021/04/15 01:39:12;;;;;;;;;;;;;;;18.60;62.99;100996.16;5013862;28;1981;-46
2021/04/15 01:41:49;;;;;;;;;;;;;;;18.58;62.93;100985.59;5011972;28;1604;-47
2021/04/15 01:44:19;;;;;;;;;;;;;;;18.60;62.63;100985.44;5014347;28;1627;-46
2021/04/15 01:46:47;;;;;;;;;;;;;;;18.59;62.68;100984.59;5015527;28;1032;-46
2021/04/15 01:49:13;;;;;;;;;;;;;;;18.58;63.01;100976.66;5014028;28;1624;-46
2021/04/15 01:51:41;;;;;;;;;;;;;;;18.59;62.65;100978.38;5013310;28;1610;-47
2021/04/15 01:54:12;;;;;;;;;;;;;;;18.57;62.86;100975.84;5013917;28;1668;-47
2021/04/15 01:56:45;;;;;;;;;;;;;;;18.59;63.33;100973.88;5008747;28;1542;-46
2021/04/15 01:59:16;;;;;;;;;;;;;;;18.59;63.23;100976.56;5013644;28;1969;-46
2021/04/15 02:01:47;;;;;;;;;;;;;;;18.55;63.25;100983.16;5010010;28;1741;-47
2021/04/15 02:04:16;;;;;;;;;;;;;;;18.53;62.82;100974.38;5010593;28;1612;-47
2021/04/15 02:06:46;;;;;;;;;;;;;;;18.52;63.02;100980.72;5013956;28;1876;-46
2021/04/15 02:09:13;;;;;;;;;;;;;;;18.55;63.11;100988.50;5012357;28;1579;-46
2021/04/15 02:11:41;;;;;;;;;;;;;;;18.55;63.69;100998.38;5035563;22;3564;-54
2021/04/15 02:14:09;;;;;;;;;;;;;;;18.55;63.31;100996.53;5017818;28;1403;-54
2021/04/15 02:16:36;;;;;;;;;;;;;;;18.57;63.21;100988.38;5026808;28;1326;-58
2021/04/15 02:19:04;;;;;;;;;;;;;;;18.53;62.93;101001.16;5022895;28;1898;-58
2021/04/15 02:21:34;;;;;;;;;;;;;;;18.52;62.76;100988.75;5027816;28;1354;-59
2021/04/15 02:24:05;;;;;;;;;;;;;;;18.53;63.31;100978.91;5017885;28;1514;-54
2021/04/15 02:26:33;;;;;;;;;;;;;;;18.51;63.19;100980.84;5029894;28;1577;-59
2021/04/15 02:29:01;;;;;;;;;;;;;;;18.53;63.29;101001.16;5028569;28;1617;-54
2021/04/15 02:31:35;;;;;;;;;;;;;;;18.51;63.04;100979.03;5027923;28;1645;-54
2021/04/15 02:34:03;;;;;;;;;;;;;;;18.54;62.64;100994.81;5028721;28;1665;-54
2021/04/15 02:36:35;;;;;;;;;;;;;;;18.93;61.94;100975.59;5024754;28;1402;-54
2021/04/15 02:39:07;;;;;;;;;;;;;;;19.95;59.01;100973.03;5021880;28;1906;-54
2021/04/15 02:41:33;;;;;;;;;;;;;;;20.62;57.49;100977.69;5025622;28;1392;-55
2021/04/15 02:44:04;;;;;;;;;;;;;;;20.15;58.30;100974.78;5024486;28;1755;-59
2021/04/15 02:46:32;;;;;;;;;;;;;;;20.03;59.59;100962.44;5021436;28;1763;-59
2021/04/15 02:49:01;;;;;;;;;;;;;;;19.77;59.85;100971.00;5017659;28;1489;-59
2021/04/15 02:51:29;;;;;;;;;;;;;;;19.63;60.80;100971.31;5027247;28;1644;-54
2021/04/15 02:53:59;;;;;;;;;;;;;;;19.63;60.56;100976.69;5029215;28;1636;-59
2021/04/15 02:56:28;;;;;;;;;;;;;;;19.87;59.79;100992.50;5029078;28;1039;-54
2021/04/15 02:58:56;;;;;;;;;;;;;;;20.58;58.20;100987.00;5026805;28;1910;-59
2021/04/15 03:01:24;;;;;;;;;;;;;;;20.90;56.95;100979.69;5026323;28;1729;-55
2021/04/15 03:03:52;;;;;;;;;;;;;;;20.98;56.88;100993.25;5020316;28;1383;-54
2021/04/15 03:06:20;;;;;;;;;;;;;;;21.05;56.90;101003.28;5017498;28;1549;-54
2021/04/15 03:08:49;;;;;;;;;;;;;;;21.09;57.26;100993.09;5015569;28;1715;-59
2021/04/15 03:11:18;;;;;;;;;;;;;;;21.20;57.01;100997.47;5023950;28;1625;-59
2021/04/15 03:13:46;;;;;;;;;;;;;;;21.16;56.45;100996.06;5016150;28;1497;-59
2021/04/15 03:16:14;;;;;;;;;;;;;;;21.22;56.08;100993.63;5020490;28;1649;-59
2021/04/15 03:18:43;;;;;;;;;;;;;;;21.32;56.34;100996.31;5017820;28;1902;-59
2021/04/15 03:21:13;;;;;;;;;;;;;;;21.23;56.18;100997.19;5023318;28;1581;-54
2021/04/15 03:23:43;;;;;;;;;;;;;;;21.21;56.92;100991.09;5009434;28;1925;-55
2021/04/15 03:26:13;;;;;;;;;;;;;;;21.28;56.22;101011.03;5018545;28;1558;-59
2021/04/15 03:28:42;;;;;;;;;;;;;;;20.92;57.39;100999.19;5017269;28;1336;-59
2021/04/15 03:31:14;;;;;;;;;;;;;;;20.45;58.92;101011.47;5018099;28;1649;-59
2021/04/15 03:33:43;;;;;;;;;;;;;;;20.24;59.75;101006.19;5011605;28;1364;-59
2021/04/15 03:36:13;;;;;;;;;;;;;;;20.18;59.07;101012.09;5022869;28;1062;-59
2021/04/15 03:38:41;;;;;;;;;;;;;;;20.11;59.49;101007.41;5009028;28;1968;-55
2021/04/15 03:41:10;;;;;;;;;;;;;;;20.06;59.81;101006.00;5017788;28;1446;-54
2021/04/15 03:43:39;;;;;;;;;;;;;;;20.12;59.66;101015.34;5015683;28;1550;-54
2021/04/15 03:46:08;;;;;;;;;;;;;;;20.05;59.56;101016.84;5018476;28;1562;-58
2021/04/15 03:48:38;;;;;;;;;;;;;;;20.05;60.28;101022.22;5010591;28;1320;-54
2021/04/15 03:51:06;;;;;;;;;;;;;;;20.04;59.77;101021.38;5022493;28;1068;-59
2021/04/15 03:53:35;;;;;;;;;;;;;;;20.09;59.84;101029.00;5006090;28;1768;-59
2021/04/15 03:56:02;;;;;;;;;;;;;;;20.08;60.18;101005.84;5011021;28;1705;-55
2021/04/15 03:58:31;;;;;;;;;;;;;;;19.94;60.41;101025.03;5011730;28;1999;-59
2021/04/15 04:01:01;;;;;;;;;;;;;;;19.76;60.83;101028.34;5010344;28;1593;-58
2021/04/15 04:03:29;;;;;;;;;;;;;;;19.59;60.56;101020.88;5022879;28;1589;-55
2021/04/15 04:05:58;;;;;;;;;;;;;;;19.52;61.28;101025.06;5016782;28;1394;-54
2021/04/15 04:08:32;;;;;;;;;;;;;;;19.41;61.56;101042.94;5006584;28;1601;-59
2021/04/15 04:10:58;;;;;;;;;;;;;;;19.36;61.78;101037.13;5016609;28;1628;-55
2021/04/15 04:13:27;;;;;;;;;;;;;;;19.33;61.79;101050.78;5014866;28;1617;-55
2021/04/15 04:15:56;;;;;;;;;;;;;;;19.34;61.77;101057.84;5008681;28;1502;-59
2021/04/15 04:18:25;;;;;;;;;;;;;;;18.27;64.42;101049.66;5018169;28;1906;-59
2021/04/15 04:20:53;;;;;;;;;;;;;;;18.60;62.52;101061.31;5011076;28;1701;-58
2021/04/15 04:23:25;;;;;;;;;;;;;;;18.57;62.70;101066.06;5012912;28;2038;-58
2021/04/15 04:25:54;;;;;;;;;;;;;;;18.49;62.09;101064.00;5009980;28;1444;-54
2021/04/15 04:28:23;;;;;;;;;;;;;;;18.55;61.79;101068.84;5015827;28;1470;-55
2021/04/15 04:30:52;;;;;;;;;;;;;;;18.51;60.43;101062.03;5010053;28;1586;-58
2021/04/15 04:33:20;;;;;;;;;;;;;;;18.57;61.14;101061.53;5019860;28;1492;-58
2021/04/15 04:35:48;;;;;;;;;;;;;;;18.58;61.15;101057.91;5011704;28;1405;-58
2021/04/15 04:38:16;;;;;;;;;;;;;;;18.48;56.99;101073.00;5017615;28;1906;-54
2021/04/15 04:40:45;;;;;;;;;;;;;;;18.43;60.86;101077.88;5009861;28;1764;-54
2021/04/15 04:43:14;;;;;;;;;;;;;;;18.39;58.78;101074.59;5017310;28;1648;-58
2021/04/15 04:45:40;;;;;;;;;;;;;;;18.43;56.66;101072.53;5015240;28;1516;-58
2021/04/15 04:48:11;;;;;;;;;;;;;;;18.35;57.57;101067.78;5017981;28;1615;-58
2021/04/15 04:50:41;;;;;;;;;;;;;;;18.59;58.84;101064.09;4999525;28;1497;-54
2021/04/15 04:53:08;;;;;;;;;;;;;;;18.77;58.18;101073.28;5012442;28;1593;-58
2021/04/15 04:55:36;;;;;;;;;;;;;;;18.65;56.82;101064.44;5019639;28;1586;-54
2021/04/15 04:58:08;;;;;;;;;;;;;;;18.65;57.78;101066.28;5012795;28;1898;-58
2021/04/15 05:00:40;;;;;;;;;;;;;;;19.36;56.16;101071.09;5006552;28;1554;-55
2021/04/15 05:03:06;;;;;;;;;;;;;;;19.62;55.65;101071.59;5015303;28;1649;-55
2021/04/15 05:05:33;;;;;;;;;;;;;;;20.14;53.51;101066.22;5005038;28;2000;-55
2021/04/15 05:08:00;;;;;;;;;;;;;;;19.67;53.93;101072.88;5018489;28;1600;-59
2021/04/15 05:10:28;;;;;;;;;;;;;;;19.75;52.46;101082.97;5013658;28;1734;-58
2021/04/15 05:12:59;;;;;;;;;;;;;;;19.74;52.96;101078.59;5014205;28;1617;-54
2021/04/15 05:15:26;;;;;;;;;;;;;;;19.71;54.25;101078.84;5017315;28;1885;-58
2021/04/15 05:17:52;;;;;;;;;;;;;;;19.65;54.06;101085.56;5023615;28;1906;-59
2021/04/15 05:20:20;;;;;;;;;;;;;;;19.59;53.88;101083.41;5010044;28;1569;-55
2021/04/15 05:22:48;;;;;;;;;;;;;;;19.64;53.91;101078.50;5019082;28;1544;-54
2021/04/15 05:25:17;;;;;;;;;;;;;;;19.63;53.62;101076.78;5011309;28;1691;-55
2021/04/15 05:27:43;;;;;;;;;;;;;;;19.66;54.45;101081.06;5022368;28;1545;-58
2021/04/15 05:30:31;;;;;;;;;;;;;;;19.74;53.59;101086.66;5020172;28;1402;-59
2021/04/15 05:32:59;;;;;;;;;;;;;;;19.70;53.44;101082.50;5021816;28;1421;-56
2021/04/15 05:35:30;;;;;;;;;;;;;;;19.42;54.42;101086.72;5005957;28;1792;-55
2021/04/15 05:37:56;;;;;;;;;;;;;;;19.53;54.63;101102.72;5021596;28;1902;-54
2021/04/15 05:40:22;;;;;;;;;;;;;;;19.56;53.47;101089.06;5016499;28;2191;-54
2021/04/15 05:42:50;;;;;;;;;;;;;;;19.46;54.30;101091.66;5020737;28;1617;-54
2021/04/15 05:45:19;;;;;;;;;;;;;;;19.59;52.07;101091.47;5017761;28;1468;-58
2021/04/15 05:47:57;;;;;;;;;;;;;;;19.59;54.21;101093.31;5012842;28;1570;-59
2021/04/15 05:50:24;;;;;;;;;;;;;;;19.79;53.72;101096.97;5004007;28;1713;-60
2021/04/15 05:52:56;;;;;;;;;;;;;;;19.77;54.47;101082.84;5014449;28;1261;-55
2021/04/15 05:55:27;;;;;;;;;;;;;;;19.96;53.81;101090.16;5018233;28;1700;-56
2021/04/15 05:57:55;;;;;;;;;;;;;;;19.83;55.34;101087.69;5018062;28;1973;-56
2021/04/15 06:00:28;;;;;;;;;;;;;;;19.79;56.54;101081.72;5017391;28;1672;-56
2021/04/15 06:02:59;;;;;;;;;;;;;;;19.77;56.82;101077.47;5008705;28;1542;-56
2021/04/15 06:05:28;;;;;;;;;;;;;;;19.63;57.04;101086.69;5004456;28;1864;-55
2021/04/15 06:08:21;;;;;;;;;;;;;;;19.67;57.65;101091.66;5016743;28;1585;-55
2021/04/15 06:10:48;;;;;;;;;;;;;;;19.73;57.26;101087.63;5014560;28;1875;-55
2021/04/15 06:13:16;;;;;;;;;;;;;;;19.55;57.76;101089.19;5017224;28;1594;-55
2021/04/15 06:15:44;;;;;;;;;;;;;;;19.46;57.58;101089.00;5006308;28;1517;-55
2021/04/15 06:18:16;;;;;;;;;;;;;;;19.42;58.08;101100.97;5012290;28;1968;-55
2021/04/15 06:20:46;;;;;;;;;;;;;;;19.37;58.47;101081.72;5002550;28;1432;-55
2021/04/15 06:23:15;;;;;;;;;;;;;;;19.31;58.92;101101.00;5012293;28;1636;-55
2021/04/15 06:25:44;;;;;;;;;;;;;;;19.23;58.82;101090.09;5013300;28;1593;-56
2021/04/15 06:28:25;;;;;;;;;;;;;;;19.21;59.03;101084.00;5012786;28;1419;-56
2021/04/15 06:30:57;;;;;;;;;;;;;;;19.24;59.33;101083.75;5012345;28;1332;-61
2021/04/15 06:33:24;;;;;;;;;;;;;;;19.30;58.81;101095.75;5008622;28;1751;-56
2021/04/15 06:35:53;;;;;;;;;;;;;;;19.28;59.19;101091.41;5008529;28;1451;-54
2021/04/15 06:38:23;;;;;;;;;;;;;;;19.26;59.14;101090.69;5006881;28;1929;-55
2021/04/15 06:40:59;;;;;;;;;;;;;;;19.25;59.25;101099.69;5015943;28;1736;-56
2021/04/15 06:43:35;;;;;;;;;;;;;;;19.20;59.35;101098.38;5008952;28;1737;-54
2021/04/15 06:46:09;;;;;;;;;;;;;;;19.19;59.18;101102.03;5012349;28;1693;-54
2021/04/15 06:48:43;;;;;;;;;;;;;;;19.18;59.37;101100.31;5016137;28;1419;-55
2021/04/15 06:51:24;;;;;;;;;;;;;;;19.24;59.10;101095.31;5010393;28;1456;-57
2021/04/15 06:53:56;;;;;;;;;;;;;;;19.22;59.44;101099.97;5009092;28;1465;-55
2021/04/15 06:56:24;;;;;;;;;;;;;;;19.25;59.46;101096.16;5008301;28;1377;-57
2021/04/15 06:59:05;;;;;;;;;;;;;;;19.38;59.03;101094.16;5008816;28;1981;-55
2021/04/15 07:01:48;;;;;;;;;;;;;;;19.39;59.05;101111.94;5007504;28;1696;-55
2021/04/15 07:04:17;;;;;;;;;;;;;;;19.37;59.06;101110.38;5008889;28;1726;-56
2021/04/15 07:07:00;;;;;;;;;;;;;;;19.33;59.39;101098.22;5008418;28;1528;-54
2021/04/15 07:09:39;;;;;;;;;;;;;;;19.41;59.16;101099.25;5006712;28;1517;-66
2021/04/15 07:12:12;;;;;;;;;;;;;;;19.38;59.73;101106.72;5013786;28;1558;-57
2021/04/15 07:14:49;;;;;;;;;;;;;;;19.38;60.06;101099.53;5004932;28;1508;-67
2021/04/15 07:17:39;;;;;;;;;;;;;;;19.37;60.13;101092.44;5016081;28;1409;-55
2021/04/15 07:20:17;;;;;;;;;;;;;;;19.37;59.98;101115.72;5005604;28;1577;-57
2021/04/15 07:23:01;;;;;;;;;;;;;;;19.47;59.87;101109.44;5012423;28;1512;-57
2021/04/15 07:25:39;;;;;;;;;;;;;;;19.46;59.81;101105.09;5010335;28;1099;-62
2021/04/15 07:28:20;;;;;;;;;;;;;;;19.56;59.59;101098.94;5011176;28;1717;-54
2021/04/15 07:31:04;;;;;;;;;;;;;;;19.57;59.48;101106.00;5006880;28;1678;-59
2021/04/15 07:33:49;;;;;;;;;;;;;;;19.59;59.45;101095.97;5021576;28;1347;-55
2021/04/15 07:36:37;;;;;;;;;;;;;;;19.60;59.31;101105.75;5003293;28;1527;-55
2021/04/15 07:39:21;;;;;;;;;;;;;;;19.59;59.77;101099.50;5009143;28;1973;-49
2021/04/15 07:41:57;;;;;;;;;;;;;;;19.52;59.61;101089.44;5010248;28;1680;-56
2021/04/15 07:44:27;;;;;;;;;;;;;;;19.58;60.01;101094.31;5007725;28;1602;-59
2021/04/15 07:47:12;;;;;;;;;;;;;;;19.61;59.43;101094.84;5007167;28;1517;-59
2021/04/15 07:49:58;;;;;;;;;;;;;;;19.50;59.74;101078.84;5000472;28;1325;-58
2021/04/15 07:52:50;;;;;;;;;;;;;;;19.47;59.04;101098.72;5005449;28;1476;-51
2021/04/15 07:55:33;;;;;;;;;;;;;;;19.45;59.17;101092.63;5007915;28;1680;-50
2021/04/15 07:58:12;;;;;;;;;;;;;;;19.26;58.13;101103.25;5005921;28;1957;-58
2021/04/15 08:00:58;;;;;;;;;;;;;;;19.32;58.76;101105.41;5006856;28;1439;-51
2021/04/15 08:03:39;;;;;;;;;;;;;;;19.33;58.70;101096.38;5003904;28;1556;-58
2021/04/15 08:06:29;;;;;;;;;;;;;;;19.28;58.90;101103.97;5005053;28;1653;-58
2021/04/15 08:09:10;;;;;;;;;;;;;;;19.35;58.33;101121.22;5001146;28;1589;-54
2021/04/15 08:11:46;;;;;;;;;;;;;;;19.24;56.78;101116.78;5012380;28;1406;-58
2021/04/15 08:14:18;;;;;;;;;;;;;;;19.27;58.04;101115.66;5010974;28;1383;-57
2021/04/15 08:17:03;;;;;;;;;;;;;;;19.24;55.24;101116.78;5011801;28;1437;-57
2021/04/15 08:19:43;;;;;;;;;;;;;;;19.22;54.72;101115.22;5014006;28;1910;-49
2021/04/15 08:22:16;;;;;;;;;;;;;;;19.18;53.29;101114.59;4983252;28;1656;-50
2021/04/15 08:24:46;;;;;;;;;;;;;;;19.18;53.50;101124.47;5011679;28;1585;-57
2021/04/15 08:27:37;;;;;;;;;;;;;;;19.08;51.83;101125.25;5006636;28;1478;-56
2021/04/15 08:30:15;;;;;;;;;;;;;;;19.04;51.61;101118.44;5013148;28;1457;-49
2021/04/15 08:32:48;;;;;;;;;;;;;;;18.99;50.77;101115.28;5008607;28;1536;-50
2021/04/15 08:35:20;;;;;;;;;;;;;;;18.96;51.89;101131.63;5002957;28;1364;-57
2021/04/15 08:37:53;;;;;;;;;;;;;;;18.93;51.31;101128.34;4984385;28;10905;-58
2021/04/15 08:40:27;;;;;;;;;;;;;;;18.87;50.48;101121.66;5013469;28;1649;-50
2021/04/15 08:43:01;;;;;;;;;;;;;;;18.85;50.71;101127.13;5015983;28;1712;-57
2021/04/15 08:45:40;;;;;;;;;;;;;;;18.81;50.80;101127.50;5008214;28;1682;-49
2021/04/15 08:48:21;;;;;;;;;;;;;;;18.79;50.81;101124.06;5007927;28;1729;-51
2021/04/15 08:50:51;;;;;;;;;;;;;;;18.82;49.89;101127.41;5001200;28;1611;-49
2021/04/15 08:53:28;;;;;;;;;;;;;;;18.82;49.77;101123.84;5014611;28;1510;-50
2021/04/15 08:55:59;;;;;;;;;;;;;;;18.86;50.57;101130.66;5013652;28;1517;-57
2021/04/15 08:58:52;;;;;;;;;;;;;;;18.89;51.50;101127.72;5007805;28;2001;-57
2021/04/15 09:01:24;;;;;;;;;;;;;;;18.90;48.75;101131.25;5005811;28;1705;-51
2021/04/15 09:03:54;;;;;;;;;;;;;;;18.87;49.17;101117.13;5017452;28;1436;-49
2021/04/15 09:06:22;;;;;;;;;;;;;;;18.94;49.43;101117.50;5009349;28;1623;-49
2021/04/15 09:08:57;;;;;;;;;;;;;;;18.95;49.17;101129.91;5016368;28;1413;-57
2021/04/15 09:11:27;;;;;;;;;;;;;;;18.95;48.68;101135.25;5013767;28;1583;-57
2021/04/15 09:13:57;;;;;;;;;;;;;;;18.94;48.32;101128.22;5005146;28;1694;-57
2021/04/15 09:16:44;;;;;;;;;;;;;;;18.93;49.50;101121.13;5009500;28;11323;-50
2021/04/15 09:19:20;;;;;;;;;;;;;;;18.99;48.56;101123.31;5001362;28;1902;-57
2021/04/15 09:22:11;;;;;;;;;;;;;;;19.04;48.80;101115.75;5004718;28;1465;-53
2021/04/15 09:24:42;;;;;;;;;;;;;;;19.23;49.62;101104.31;5010815;28;1424;-52
2021/04/15 09:27:32;;;;;;;;;;;;;;;19.47;49.94;101116.66;5010110;28;1444;-53
2021/04/15 09:30:00;;;;;;;;;;;;;;;19.52;49.62;101114.44;5005859;28;1506;-58
2021/04/15 09:32:36;;;;;;;;;;;;;;;19.27;50.56;101108.44;5010086;28;1562;-58
2021/04/15 09:35:26;;;;;;;;;;;;;;;19.43;50.75;101110.69;5009657;28;1373;-58
2021/04/15 09:38:03;;;;;;;;;;;;;;;18.88;49.69;101118.00;4995507;28;2556;-50
2021/04/15 09:40:37;;;;;;;;;;;;;;;18.58;51.19;101114.13;5011244;28;1399;-52
2021/04/15 09:43:07;;;;;;;;;;;;;;;18.49;50.97;101109.53;5008302;28;1477;-62
2021/04/15 09:45:42;;;;;;;;;;;;;;;18.42;50.32;101110.97;5006930;28;1440;-57
2021/04/15 09:48:14;;;;;;;;;;;;;;;18.37;50.15;101110.50;5019105;28;1436;-53
2021/04/15 09:50:46;;;;;;;;;;;;;;;18.03;49.63;101105.16;5012516;28;1492;-53
2021/04/15 09:53:20;;;;;;;;;;;;;;;18.18;50.12;101113.78;5016611;28;1524;-52
2021/04/15 09:55:58;;;;;;;;;;;;;;;18.57;49.54;101093.69;5015423;28;1489;-48
2021/04/15 09:58:28;;;;;;;;;;;;;;;18.85;50.38;101107.53;5011462;28;1973;-58
2021/04/15 10:00:56;;;;;;;;;;;;;;;19.15;50.23;101087.19;5004727;28;1464;-56
2021/04/15 10:03:28;;;;;;;;;;;;;;;19.25;50.14;101083.59;5016051;28;1426;-61
2021/04/15 10:06:04;;;;;;;;;;;;;;;19.33;50.34;101096.38;5014569;28;1516;-57
2021/04/15 10:08:36;;;;;;;;;;;;;;;19.37;50.51;101092.44;5011873;28;1379;-57
2021/04/15 10:11:06;;;;;;;;;;;;;;;19.33;50.88;101096.38;5009024;28;1521;-57
2021/04/15 10:13:39;;;;;;;;;;;;;;;19.36;50.85;101090.75;5013577;28;1910;-49
2021/04/15 10:16:07;;;;;;;;;;;;;;;19.39;51.28;101085.13;5012924;28;1469;-55
2021/04/15 10:18:51;;;;;;;;;;;;;;;19.45;51.46;101084.59;5013319;28;1898;-55
2021/04/15 10:21:25;;;;;;;;;;;;;;;19.47;51.27;101082.63;5009903;28;1636;-61
2021/04/15 10:24:05;;;;;;;;;;;;;;;19.55;51.76;101089.19;5013181;28;1448;-54
2021/04/15 10:26:45;;;;;;;;;;;;;;;19.56;51.51;101074.81;5010283;28;1473;-61
2021/04/15 10:29:21;;;;;;;;;;;;;;;19.48;51.62;101099.59;5011508;28;1476;-56
2021/04/15 10:32:00;;;;;;;;;;;;;;;19.39;51.87;101093.16;5010806;28;1587;-55
2021/04/15 10:34:48;;;;;;;;;;;;;;;19.33;52.28;101087.47;4999712;28;1356;-55
2021/04/15 10:37:20;;;;;;;;;;;;;;;19.42;52.39;101100.13;5014796;28;1474;-55
2021/04/15 10:40:05;;;;;;;;;;;;;;;19.39;52.37;101100.38;5017872;28;1902;-56
2021/04/15 10:42:47;;;;;;;;;;;;;;;19.22;52.64;101097.28;5015280;28;1382;-55
2021/04/15 10:45:32;;;;;;;;;;;;;;;19.19;52.44;101097.53;5008224;28;11103;-60
2021/04/15 10:48:15;;;;;;;;;;;;;;;19.27;52.53;101099.56;5009107;28;1881;-54
2021/04/15 10:50:50;;;;;;;;;;;;;;;19.32;52.59;101092.00;5002944;28;1457;-56
2021/04/15 10:53:35;;;;;;;;;;;;;;;19.31;52.83;101082.25;5006142;28;1508;-55
2021/04/15 10:56:06;;;;;;;;;;;;;;;19.30;52.89;101077.00;5009438;28;1741;-55
2021/04/15 10:58:35;;;;;;;;;;;;;;;19.25;52.63;101070.19;5007105;28;1922;-55
2021/04/15 11:01:16;;;;;;;;;;;;;;;19.29;53.22;101076.16;5015544;28;1514;-55
2021/04/15 11:03:42;;;;;;;;;;;;;;;19.33;52.88;101074.06;5006708;28;1579;-56
2021/04/15 11:06:11;;;;;;;;;;;;;;;19.39;52.93;101049.41;5002768;28;1752;-55
2021/04/15 11:08:38;;;;;;;;;;;;;;;19.40;52.84;101057.34;5010776;28;1504;-55
2021/04/15 11:11:11;;;;;;;;;;;;;;;19.39;52.88;101063.66;5006093;28;1711;-55
2021/04/15 11:13:38;;;;;;;;;;;;;;;19.38;52.82;101050.41;5011656;28;1997;-54
2021/04/15 11:16:05;;;;;;;;;;;;;;;19.39;53.07;101058.28;4999760;28;1516;-55
2021/04/15 11:18:34;;;;;;;;;;;;;;;19.46;52.84;101058.66;5016903;28;1906;-55
2021/04/15 11:21:17;;;;;;;;;;;;;;;19.47;52.93;101061.16;5009937;28;1392;-57
2021/04/15 11:23:44;;;;;;;;;;;;;;;19.43;52.82;101061.56;5012609;28;1839;-55
2021/04/15 11:26:21;;;;;;;;;;;;;;;19.44;53.06;101060.59;5009360;28;1589;-54
2021/04/15 11:28:49;;;;;;;;;;;;;;;19.36;53.01;101058.56;5005479;28;1506;-54
2021/04/15 11:31:35;;;;;;;;;;;;;;;19.37;53.48;101056.75;5007397;28;1553;-56
2021/04/15 11:34:08;;;;;;;;;;;;;;;19.36;53.79;101063.94;5010845;28;1326;-58
2021/04/15 11:36:36;;;;;;;;;;;;;;;19.41;54.20;101061.69;5005746;28;1562;-54
2021/04/15 11:39:08;;;;;;;;;;;;;;;19.39;54.07;101076.22;5017081;28;1899;-55
2021/04/15 11:41:37;;;;;;;;;;;;;;;19.28;54.28;101072.63;5011354;28;1379;-54
2021/04/15 11:44:05;;;;;;;;;;;;;;;19.21;54.86;101065.22;5013398;28;1568;-54
2021/04/15 11:46:34;;;;;;;;;;;;;;;19.18;54.64;101060.13;5009819;28;2002;-55
2021/04/15 11:49:06;;;;;;;;;;;;;;;19.07;55.22;101059.19;5005100;28;1076;-54
2021/04/15 11:51:40;;;;;;;;;;;;;;;19.21;55.28;101065.22;5005661;28;1409;-56
2021/04/15 11:54:12;;;;;;;;;;;;;;;19.23;55.25;101057.91;5008944;28;1422;-55
2021/04/15 11:56:38;;;;;;;;;;;;;;;19.22;55.74;101058.91;5008407;28;1475;-55
2021/04/15 11:59:19;;;;;;;;;;;;;;;19.24;55.91;101038.19;5008022;28;1926;-57
2021/04/15 12:01:46;;;;;;;;;;;;;;;19.25;56.72;101051.44;5003196;28;1602;-56
2021/04/15 12:04:17;;;;;;;;;;;;;;;19.25;56.23;101050.59;5007523;28;1755;-56
2021/04/15 12:06:45;;;;;;;;;;;;;;;19.22;56.73;101040.13;5008499;28;1729;-55
2021/04/15 12:09:13;;;;;;;;;;;;;;;19.20;56.14;101042.94;5003899;28;1429;-55
2021/04/15 12:11:44;;;;;;;;;;;;;;;19.25;56.68;101050.59;5003214;28;1392;-56
2021/04/15 12:14:12;;;;;;;;;;;;;;;19.24;56.46;101040.84;5003303;28;1615;-55
2021/04/15 12:16:46;;;;;;;;;;;;;;;19.27;56.14;101035.22;5005109;28;1500;-55
2021/04/15 12:19:16;;;;;;;;;;;;;;;19.30;56.37;101040.34;5006398;28;1902;-56
2021/04/15 12:21:46;;;;;;;;;;;;;;;19.27;55.87;101052.16;5009962;28;1485;-55
2021/04/15 12:24:15;;;;;;;;;;;;;;;19.33;56.33;101050.78;5014012;28;1519;-56
2021/04/15 12:26:45;;;;;;;;;;;;;;;19.31;56.12;101036.66;5004116;28;1897;-58
2021/04/15 12:29:16;;;;;;;;;;;;;;;19.30;55.90;101032.28;5009783;28;1659;-55
2021/04/15 12:31:45;;;;;;;;;;;;;;;19.32;55.66;101049.09;5006860;28;1493;-60
2021/04/15 12:34:19;;;;;;;;;;;;;;;19.26;55.59;101049.63;5017063;28;1701;-59
2021/04/15 12:36:47;;;;;;;;;;;;;;;19.26;55.74;101036.22;5010523;28;1824;-59
2021/04/15 12:39:14;;;;;;;;;;;;;;;19.27;55.50;101038.75;5014765;28;1965;-58
2021/04/15 12:41:41;;;;;;;;;;;;;;;19.35;55.53;101027.38;4997362;28;1519;-66
2021/04/15 12:44:11;;;;;;;;;;;;;;;19.38;55.30;101032.47;4998217;28;1484;-60
2021/04/15 12:46:38;;;;;;;;;;;;;;;19.43;55.23;101026.72;5003702;28;1410;-65
2021/04/15 12:49:05;;;;;;;;;;;;;;;19.36;55.25;101021.03;4999199;28;1141;-59
2021/04/15 12:51:32;;;;;;;;;;;;;;;19.43;55.05;101024.88;5007215;28;1446;-57
2021/04/15 12:54:02;;;;;;;;;;;;;;;19.45;55.36;101022.91;5009091;28;1418;-59
2021/04/15 12:56:32;;;;;;;;;;;;;;;19.48;55.57;101009.25;5010480;28;1502;-58
2021/04/15 12:58:59;;;;;;;;;;;;;;;19.48;55.75;101011.94;5009638;28;1981;-59
2021/04/15 13:01:28;;;;;;;;;;;;;;;19.52;56.14;101019.69;5015145;28;1741;-62
2021/04/15 13:03:54;;;;;;;;;;;;;;;19.51;56.21;101026.06;5019671;28;1756;-60
2021/04/15 13:06:21;;;;;;;;;;;;;;;19.54;55.92;101023.13;5011595;28;1591;-59
2021/04/15 13:08:49;;;;;;;;;;;;;;;19.45;55.91;101014.84;5016722;28;1540;-57
2021/04/15 13:11:33;;;;;;;;;;;;;;;19.44;56.08;101018.53;5011418;28;1577;-67
2021/04/15 13:14:00;;;;;;;;;;;;;;;19.43;56.22;101022.19;5011291;28;1508;-67